Time;durP1;ratioP1;P1;durP2;ratioP2;P2;SDS_P1;SDS_P2;PMS_P1;PMS_P2;Temp;Humidity;BMP_temperature;BMP_pressure;BME280_temperature;BME280_humidity;BME280_pressure;Samples;Min_cycle;Max_cycle;Signal;HPM_P1;HPM_P2
2022/12/31 00:01:49;;;;;;;1999.90;999.90;;;10.00;99.90;;;;;;5053365;28;20486;-77
2022/12/31 00:04:15;;;;;;;1999.90;999.90;;;10.10;99.90;;;;;;5062873;28;20051;-77
2022/12/31 00:06:41;;;;;;;1999.90;999.90;;;10.10;99.90;;;;;;5057766;28;20044;-77
2022/12/31 00:09:07;;;;;;;780.05;437.38;;;10.10;99.90;;;;;;5052494;28;20496;-76
2022/12/31 00:11:34;;;;;;;1999.90;999.90;;;10.10;99.90;;;;;;5055994;28;20021;-77
2022/12/31 00:14:01;;;;;;;1232.95;599.38;;;10.20;99.90;;;;;;5067364;28;20024;-77
2022/12/31 00:16:32;;;;;;;1410.50;732.10;;;10.20;99.90;;;;;;5060339;28;20040;-77
2022/12/31 00:18:59;;;;;;;1999.90;999.90;;;10.20;99.90;;;;;;5062045;28;20047;-77
2022/12/31 00:21:27;;;;;;;1301.35;618.78;;;10.20;99.90;;;;;;5059369;28;20033;-77
2022/12/31 00:23:53;;;;;;;1999.90;999.90;;;10.20;99.90;;;;;;5059365;28;20028;-77
2022/12/31 00:26:24;;;;;;;1999.90;999.90;;;10.20;99.90;;;;;;5060509;28;20028;-77
2022/12/31 00:28:51;;;;;;;1471.55;653.28;;;10.10;99.90;;;;;;5058675;28;20046;-77
2022/12/31 00:31:20;;;;;;;1683.80;847.03;;;10.10;99.90;;;;;;5058934;28;20033;-77
2022/12/31 00:33:46;;;;;;;1010.25;521.60;;;10.00;99.90;;;;;;5064912;28;20402;-76
2022/12/31 00:36:19;;;;;;;1999.90;999.90;;;10.00;99.90;;;;;;5057581;28;20040;-77
2022/12/31 00:38:46;;;;;;;1999.90;999.90;;;10.00;99.90;;;;;;5059865;28;20623;-76
2022/12/31 00:41:13;;;;;;;1999.90;999.90;;;10.10;99.90;;;;;;5058334;28;20036;-77
2022/12/31 00:43:39;;;;;;;1327.82;642.38;;;10.10;99.90;;;;;;5056602;28;20029;-77
2022/12/31 00:46:06;;;;;;;1094.82;736.28;;;10.00;99.90;;;;;;5055789;28;20580;-76
2022/12/31 00:48:32;;;;;;;1076.32;683.13;;;10.00;99.90;;;;;;5059178;28;20044;-77
2022/12/31 00:50:59;;;;;;;1011.63;726.30;;;10.10;99.90;;;;;;5056811;28;20501;-77
2022/12/31 00:53:25;;;;;;;1999.90;999.90;;;10.10;99.90;;;;;;5060387;28;20024;-77
2022/12/31 00:55:51;;;;;;;937.03;401.40;;;10.00;99.90;;;;;;5057651;28;20032;-77
2022/12/31 00:58:17;;;;;;;999.72;771.20;;;10.10;99.90;;;;;;5068344;28;20029;-77
2022/12/31 01:00:43;;;;;;;1459.28;819.45;;;10.10;99.90;;;;;;5044336;28;20083;-77
2022/12/31 01:03:08;;;;;;;831.13;622.25;;;10.10;99.90;;;;;;5043174;28;20059;-76
2022/12/31 01:05:35;;;;;;;878.42;697.35;;;10.10;99.90;;;;;;5061141;28;20078;-77
2022/12/31 01:08:02;;;;;;;1439.95;680.92;;;10.00;99.90;;;;;;5065867;28;20036;-77
2022/12/31 01:13:11;;;;;;;1999.90;999.90;;;10.20;99.90;;;;;;5059293;28;20043;-76
2022/12/31 01:15:38;;;;;;;1603.25;797.92;;;10.10;99.90;;;;;;5046540;28;20029;-77
2022/12/31 01:18:06;;;;;;;1999.90;999.90;;;10.10;99.90;;;;;;5061547;28;20113;-77
2022/12/31 01:20:40;;;;;;;1999.90;999.90;;;10.10;99.90;;;;;;5052367;28;20037;-76
2022/12/31 01:23:07;;;;;;;1999.90;999.90;;;10.00;99.90;;;;;;5062267;28;20493;-77
2022/12/31 01:25:37;;;;;;;1591.13;782.85;;;10.20;99.90;;;;;;5063637;28;20032;-77
2022/12/31 01:28:04;;;;;;;1720.30;841.10;;;10.20;99.90;;;;;;5056596;28;20024;-76
2022/12/31 01:30:30;;;;;;;315.23;122.13;;;10.20;99.90;;;;;;5064393;28;20056;-76
2022/12/31 01:32:56;;;;;;;1999.90;999.90;;;10.30;99.90;;;;;;5054591;28;20029;-77
2022/12/31 01:35:22;;;;;;;1999.90;999.90;;;10.20;99.90;;;;;;5056393;28;20033;-76
2022/12/31 01:37:48;;;;;;;1999.90;999.90;;;10.20;99.90;;;;;;5062575;28;20029;-77
2022/12/31 01:40:14;;;;;;;1301.72;585.17;;;10.20;99.90;;;;;;5055640;28;20413;-77
2022/12/31 01:42:39;;;;;;;1730.80;839.45;;;10.30;99.90;;;;;;5059853;28;20064;-77
2022/12/31 01:45:11;;;;;;;1999.90;999.90;;;10.40;99.90;;;;;;5053878;28;20028;-77
2022/12/31 01:47:47;;;;;;;1130.70;558.92;;;10.30;99.90;;;;;;5078634;28;20526;-77
2022/12/31 01:50:27;;;;;;;1999.90;999.90;;;10.30;99.90;;;;;;5053482;28;20045;-77
2022/12/31 01:52:57;;;;;;;1999.90;999.90;;;10.30;99.90;;;;;;5050178;28;20392;-77
2022/12/31 01:55:32;;;;;;;1999.90;999.90;;;10.20;99.90;;;;;;5062716;28;20657;-77
2022/12/31 01:58:04;;;;;;;1999.90;999.90;;;10.40;99.90;;;;;;5060101;28;20029;-77
2022/12/31 02:00:31;;;;;;;1375.90;645.42;;;10.40;99.90;;;;;;5055473;28;20037;-76
2022/12/31 02:02:57;;;;;;;1999.90;999.90;;;10.50;99.90;;;;;;5053219;28;20067;-77
2022/12/31 02:05:28;;;;;;;1999.90;999.90;;;10.50;99.90;;;;;;5055171;28;20075;-77
2022/12/31 02:07:54;;;;;;;1560.80;769.58;;;10.40;99.90;;;;;;5066870;28;20036;-77
2022/12/31 02:10:20;;;;;;;630.50;320.40;;;10.50;99.90;;;;;;5058859;28;20077;-77
2022/12/31 02:12:46;;;;;;;1999.90;999.90;;;10.40;99.90;;;;;;5063466;28;20112;-77
2022/12/31 02:15:12;;;;;;;1218.75;553.15;;;10.40;99.90;;;;;;5058478;28;20032;-77
2022/12/31 02:17:59;;;;;;;1999.90;999.90;;;10.40;99.90;;;;;;5061720;28;20024;-77
2022/12/31 02:20:42;;;;;;;1999.90;999.90;;;10.50;99.90;;;;;;5070168;28;20115;-77
2022/12/31 02:23:19;;;;;;;1999.90;999.90;;;10.50;99.90;;;;;;5057853;28;20456;-77
2022/12/31 02:25:57;;;;;;;1647.72;819.45;;;10.40;99.90;;;;;;5063420;28;20148;-76
2022/12/31 02:28:35;;;;;;;1999.90;999.90;;;10.50;99.90;;;;;;5060207;28;20394;-77
2022/12/31 02:31:30;;;;;;;1647.38;821.67;;;10.60;99.90;;;;;;5066738;28;20071;-77
2022/12/31 02:34:20;;;;;;;1596.03;792.20;;;10.40;99.90;;;;;;5058721;28;20021;-77
2022/12/31 02:36:49;;;;;;;1572.93;790.78;;;10.50;99.90;;;;;;5056508;28;20046;-77
2022/12/31 02:39:15;;;;;;;1005.15;439.60;;;10.60;99.90;;;;;;5058050;28;20037;-77
2022/12/31 02:41:50;;;;;;;1353.72;656.05;;;10.60;99.90;;;;;;5053993;28;20024;-77
2022/12/31 02:44:23;;;;;;;1213.97;610.85;;;10.70;99.90;;;;;;5042774;28;20036;-77
2022/12/31 02:46:53;;;;;;;299.05;127.90;;;10.80;99.90;;;;;;5062623;28;20489;-77
2022/12/31 02:49:27;;;;;;;1999.90;999.90;;;10.80;99.90;;;;;;5063088;28;20755;-77
2022/12/31 02:52:37;;;;;;;1999.90;999.90;;;10.80;99.90;;;;;;5060624;28;20071;-77
2022/12/31 02:55:46;;;;;;;1999.90;999.90;;;10.80;99.90;;;;;;5058214;28;20148;-77
2022/12/31 03:04:30;;;;;;;1999.90;999.90;;;10.60;99.90;;;;;;5057521;28;20098;-77
2022/12/31 03:07:07;;;;;;;1999.90;999.90;;;10.60;99.90;;;;;;5056906;28;20027;-77
2022/12/31 03:09:34;;;;;;;1999.90;999.90;;;10.70;99.90;;;;;;5060892;28;20040;-77
2022/12/31 03:12:46;;;;;;;1999.90;999.90;;;10.80;99.90;;;;;;5046022;28;20028;-77
2022/12/31 03:14:46;;;;;;;1425.97;747.22;;;10.90;99.90;;;;;;5049557;28;20036;-77
2022/12/31 03:17:12;;;;;;;1230.68;505.45;;;10.90;99.90;;;;;;5064257;28;20081;-77
2022/12/31 03:22:27;;;;;;;1999.90;999.90;;;11.00;99.90;;;;;;5050703;28;20047;-77
2022/12/31 03:27:54;;;;;;;1999.90;999.90;;;11.00;99.90;;;;;;5053669;28;20552;-76
2022/12/31 03:30:22;;;;;;;1999.90;999.90;;;11.00;99.90;;;;;;5061223;28;20064;-77
2022/12/31 03:32:48;;;;;;;1033.93;537.22;;;11.00;99.90;;;;;;5058429;28;20020;-77
2022/12/31 03:35:15;;;;;;;1590.15;797.80;;;11.10;99.90;;;;;;5055567;28;20735;-77
2022/12/31 03:37:42;;;;;;;1999.90;999.90;;;11.00;99.90;;;;;;5055459;28;20044;-77
2022/12/31 03:40:09;;;;;;;1999.90;999.90;;;11.00;99.90;;;;;;5058119;28;20529;-77
2022/12/31 03:42:35;;;;;;;1394.55;720.40;;;11.00;99.90;;;;;;5059627;28;20040;-76
2022/12/31 03:45:02;;;;;;;1999.90;999.90;;;11.00;99.90;;;;;;5059388;28;20055;-77
2022/12/31 03:47:27;;;;;;;1567.75;779.50;;;11.10;99.90;;;;;;5049248;28;20120;-77
2022/12/31 03:49:53;;;;;;;1284.18;675.92;;;11.00;99.90;;;;;;5059858;28;20125;-77
2022/12/31 03:52:19;;;;;;;1365.95;713.47;;;11.00;99.90;;;;;;5055576;28;20573;-77
2022/12/31 03:54:44;;;;;;;1999.90;999.90;;;11.20;99.90;;;;;;5046493;28;20024;-77
2022/12/31 03:57:11;;;;;;;882.40;497.38;;;11.20;99.90;;;;;;5052686;28;20032;-77
2022/12/31 03:59:37;;;;;;;1329.32;680.45;;;11.30;99.90;;;;;;5058444;28;20111;-78
2022/12/31 04:02:03;;;;;;;1999.90;999.90;;;11.30;99.90;;;;;;5049348;28;20232;-77
2022/12/31 04:04:29;;;;;;;1999.90;999.90;;;11.20;99.90;;;;;;5058821;28;20033;-77
2022/12/31 04:06:54;;;;;;;1034.95;503.27;;;11.30;99.90;;;;;;5055304;28;20063;-77
2022/12/31 04:09:20;;;;;;;1999.90;999.90;;;11.20;99.90;;;;;;5052166;28;20174;-77
2022/12/31 04:11:46;;;;;;;1615.70;812.50;;;11.20;99.90;;;;;;5058073;28;20033;-77
2022/12/31 04:14:11;;;;;;;1999.90;999.90;;;11.20;99.90;;;;;;5059113;28;20016;-77
2022/12/31 04:16:37;;;;;;;1999.90;999.90;;;11.10;99.90;;;;;;5066939;28;20021;-77
2022/12/31 04:19:03;;;;;;;1999.90;999.90;;;11.20;99.90;;;;;;5062273;28;20401;-77
2022/12/31 04:21:28;;;;;;;1999.90;999.90;;;11.20;99.90;;;;;;5046122;28;20033;-77
2022/12/31 04:23:54;;;;;;;679.10;333.95;;;11.30;99.90;;;;;;5056242;28;20032;-77
2022/12/31 04:26:20;;;;;;;1999.90;999.90;;;11.30;99.90;;;;;;5062859;28;20107;-77
2022/12/31 04:28:45;;;;;;;1999.90;999.90;;;11.20;99.90;;;;;;5049220;28;20057;-77
2022/12/31 04:31:11;;;;;;;1166.82;582.03;;;11.10;99.90;;;;;;5064152;28;20135;-77
2022/12/31 04:33:37;;;;;;;1999.90;999.90;;;11.00;99.90;;;;;;5063418;28;20048;-77
2022/12/31 04:36:04;;;;;;;566.10;273.95;;;11.00;99.90;;;;;;5057746;28;20434;-77
2022/12/31 04:38:30;;;;;;;1999.90;999.90;;;11.00;99.90;;;;;;5066046;28;20040;-77
2022/12/31 04:43:40;;;;;;;1999.90;999.90;;;10.90;99.90;;;;;;5060240;28;20035;-77
2022/12/31 04:46:06;;;;;;;1999.90;999.90;;;10.80;99.90;;;;;;5062499;28;20028;-77
2022/12/31 04:48:32;;;;;;;1999.90;999.90;;;10.80;99.90;;;;;;5060481;28;20466;-77
2022/12/31 04:50:57;;;;;;;1999.90;999.90;;;10.70;99.90;;;;;;5062734;28;20044;-77
2022/12/31 04:53:23;;;;;;;1999.90;999.90;;;10.50;99.90;;;;;;5060637;28;20037;-77
2022/12/31 04:55:49;;;;;;;1999.90;999.90;;;10.50;99.90;;;;;;5052716;28;20064;-77
2022/12/31 04:58:16;;;;;;;1999.90;999.90;;;10.60;99.90;;;;;;5066810;28;20035;-77
2022/12/31 05:00:43;;;;;;;1999.90;999.90;;;10.60;99.90;;;;;;5058829;28;20040;-77
2022/12/31 05:03:09;;;;;;;1999.90;999.90;;;10.70;99.90;;;;;;5063977;28;20054;-77
2022/12/31 05:05:38;;;;;;;1999.90;999.90;;;10.80;99.90;;;;;;5044348;28;20542;-76
2022/12/31 05:08:03;;;;;;;1999.90;999.90;;;10.80;99.90;;;;;;5063305;28;20239;-77
2022/12/31 05:10:29;;;;;;;832.80;463.13;;;10.70;99.90;;;;;;5059679;28;20748;-77
2022/12/31 05:12:55;;;;;;;1999.90;999.90;;;10.50;99.90;;;;;;5041098;28;20037;-77
2022/12/31 05:15:20;;;;;;;1999.90;999.90;;;10.40;99.90;;;;;;5057304;28;20028;-77
2022/12/31 05:17:46;;;;;;;1999.90;999.90;;;10.40;99.90;;;;;;5059781;28;20063;-77
2022/12/31 05:20:12;;;;;;;1999.90;999.90;;;10.30;99.90;;;;;;5066405;28;20047;-77
2022/12/31 05:22:37;;;;;;;1999.90;999.90;;;10.10;99.90;;;;;;5056724;28;20492;-76
2022/12/31 05:25:03;;;;;;;1999.90;999.90;;;10.10;99.90;;;;;;5052955;28;20029;-77
2022/12/31 05:27:29;;;;;;;1999.90;999.90;;;10.10;99.90;;;;;;5064000;28;20032;-77
2022/12/31 05:29:55;;;;;;;1999.90;999.90;;;10.00;99.90;;;;;;5041110;28;20057;-77
2022/12/31 05:32:21;;;;;;;1999.90;999.90;;;10.00;99.90;;;;;;5059447;28;20177;-77
2022/12/31 05:34:46;;;;;;;1999.90;999.90;;;10.00;99.90;;;;;;5060683;28;20036;-77
2022/12/31 05:37:12;;;;;;;1999.90;999.90;;;10.00;99.90;;;;;;5061474;28;20841;-77
2022/12/31 05:39:38;;;;;;;1999.90;999.90;;;10.00;99.90;;;;;;5050095;28;20585;-77
2022/12/31 05:42:03;;;;;;;1999.90;999.90;;;10.00;99.90;;;;;;5048983;28;20033;-77
2022/12/31 05:44:29;;;;;;;1077.43;529.15;;;9.90;99.90;;;;;;5042373;28;20064;-77
2022/12/31 05:46:55;;;;;;;1999.90;999.90;;;9.80;99.90;;;;;;5057990;28;20629;-77
2022/12/31 05:49:20;;;;;;;1999.90;999.90;;;9.70;99.90;;;;;;5066569;28;20048;-76
2022/12/31 05:51:46;;;;;;;1999.90;999.90;;;9.60;99.90;;;;;;5058962;28;20025;-77
2022/12/31 05:54:11;;;;;;;1999.90;999.90;;;9.60;99.90;;;;;;5054003;28;20029;-76
2022/12/31 05:56:37;;;;;;;1999.90;999.90;;;9.50;99.90;;;;;;5068018;28;20024;-77
2022/12/31 05:59:03;;;;;;;1999.90;999.90;;;9.50;99.90;;;;;;5057596;28;20032;-76
2022/12/31 06:01:28;;;;;;;1999.90;999.90;;;9.40;99.90;;;;;;5060408;28;20549;-76
2022/12/31 06:03:54;;;;;;;1999.90;999.90;;;9.40;99.90;;;;;;5049784;28;20040;-77
2022/12/31 06:06:19;;;;;;;1999.90;999.90;;;9.40;99.90;;;;;;5057046;28;20059;-77
2022/12/31 06:08:49;;;;;;;1999.90;999.90;;;9.40;99.90;;;;;;5061021;28;20506;-77
2022/12/31 06:11:15;;;;;;;1999.90;999.90;;;9.50;99.90;;;;;;5065161;28;20032;-77
2022/12/31 06:13:40;;;;;;;1999.90;999.90;;;9.50;99.90;;;;;;5056936;28;20037;-77
2022/12/31 06:16:07;;;;;;;1999.90;999.90;;;9.50;99.90;;;;;;5048119;28;20852;-77
2022/12/31 06:18:33;;;;;;;1999.90;999.90;;;9.60;99.90;;;;;;5059798;28;20429;-77
2022/12/31 06:20:59;;;;;;;1999.90;999.90;;;9.60;99.90;;;;;;5056371;28;20040;-76
2022/12/31 06:23:24;;;;;;;1999.90;999.90;;;9.60;99.90;;;;;;5053467;28;20036;-77
2022/12/31 06:25:50;;;;;;;1999.90;999.90;;;9.60;99.90;;;;;;5058974;28;20534;-77
2022/12/31 06:28:16;;;;;;;1999.90;999.90;;;9.60;99.90;;;;;;5041836;28;20513;-77
2022/12/31 06:30:43;;;;;;;1999.90;999.90;;;9.70;99.90;;;;;;5056657;28;20045;-77
2022/12/31 06:33:08;;;;;;;1999.90;999.90;;;9.70;99.90;;;;;;5054991;28;20111;-77
2022/12/31 06:35:34;;;;;;;1999.90;999.90;;;9.70;99.90;;;;;;5058663;28;20154;-77
2022/12/31 06:38:00;;;;;;;1999.90;999.90;;;9.60;99.90;;;;;;5056518;28;20044;-77
2022/12/31 06:40:26;;;;;;;1999.90;999.90;;;9.70;99.90;;;;;;5055168;28;20029;-77
2022/12/31 06:42:52;;;;;;;1999.90;999.90;;;9.70;99.90;;;;;;5059748;28;20033;-77
2022/12/31 06:45:18;;;;;;;1999.90;999.90;;;9.70;99.90;;;;;;5060945;28;20130;-77
2022/12/31 06:47:44;;;;;;;1999.90;999.90;;;9.80;99.90;;;;;;5058675;28;20029;-77
2022/12/31 06:50:09;;;;;;;1999.90;999.90;;;9.90;99.90;;;;;;5059557;28;20055;-77
2022/12/31 06:52:35;;;;;;;1999.90;999.90;;;9.90;99.90;;;;;;5060079;28;20034;-77
2022/12/31 06:55:01;;;;;;;1999.90;999.90;;;9.90;99.90;;;;;;5061208;28;20086;-77
2022/12/31 06:57:27;;;;;;;1999.90;999.90;;;9.80;99.90;;;;;;5043947;28;20557;-77
2022/12/31 06:59:53;;;;;;;1999.90;999.90;;;9.70;99.90;;;;;;5057786;28;20080;-77
2022/12/31 07:02:47;;;;;;;1999.90;999.90;;;9.90;99.90;;;;;;5056610;28;20520;-77
2022/12/31 07:05:31;;;;;;;1999.90;999.90;;;9.80;99.90;;;;;;5056775;28;20025;-77
2022/12/31 07:08:07;;;;;;;1999.90;999.90;;;9.80;99.90;;;;;;5055686;28;20037;-77
2022/12/31 07:10:36;;;;;;;1999.90;999.90;;;9.70;99.90;;;;;;5055676;28;20499;-77
2022/12/31 07:13:35;;;;;;;1999.90;999.90;;;9.70;99.90;;;;;;5063665;28;20170;-77
2022/12/31 07:16:07;;;;;;;1999.90;999.90;;;9.70;99.90;;;;;;5061241;28;20098;-77
2022/12/31 07:18:51;;;;;;;1999.90;999.90;;;9.70;99.90;;;;;;5057388;28;20025;-77
2022/12/31 07:21:24;;;;;;;1999.90;999.90;;;9.50;99.90;;;;;;5057213;28;20032;-77
2022/12/31 07:23:50;;;;;;;1999.90;999.90;;;9.40;99.90;;;;;;5053338;28;20056;-77
2022/12/31 07:26:22;;;;;;;1999.90;999.90;;;9.50;99.90;;;;;;5042867;28;20532;-77
2022/12/31 07:29:10;;;;;;;1999.90;999.90;;;9.30;99.90;;;;;;5059954;28;20102;-76
2022/12/31 07:31:58;;;;;;;1999.90;999.90;;;9.40;99.90;;;;;;5053602;28;20036;-76
2022/12/31 07:34:36;;;;;;;1999.90;999.90;;;9.50;99.90;;;;;;5054050;28;20045;-77
2022/12/31 07:37:21;;;;;;;1999.90;999.90;;;9.50;99.90;;;;;;5048193;28;20029;-77
2022/12/31 07:40:16;;;;;;;1999.90;999.90;;;9.40;99.90;;;;;;5055395;28;20058;-77
2022/12/31 07:43:16;;;;;;;1999.90;999.90;;;9.40;99.90;;;;;;5045210;28;20063;-77
2022/12/31 07:45:59;;;;;;;1999.90;999.90;;;9.40;99.90;;;;;;5046216;28;20460;-76
2022/12/31 07:48:29;;;;;;;1999.90;999.90;;;9.40;99.90;;;;;;5057162;28;20037;-75
2022/12/31 07:50:57;;;;;;;1999.90;999.90;;;9.40;99.90;;;;;;5044400;28;20048;-75
2022/12/31 07:53:24;;;;;;;1999.90;999.90;;;9.40;99.90;;;;;;5046598;28;20283;-75
2022/12/31 07:55:59;;;;;;;1999.90;999.90;;;9.40;99.90;;;;;;5059497;28;21495;-75
2022/12/31 07:58:34;;;;;;;1999.90;999.90;;;9.20;99.90;;;;;;5057619;28;20522;-75
2022/12/31 08:01:01;;;;;;;1999.90;999.90;;;9.30;99.90;;;;;;5057709;28;20028;-75
2022/12/31 08:03:56;;;;;;;1999.90;999.90;;;9.30;99.90;;;;;;5056444;28;20031;-75
2022/12/31 08:06:35;;;;;;;1999.90;999.90;;;9.20;99.90;;;;;;5059811;28;20041;-75
2022/12/31 08:09:08;;;;;;;1999.90;999.90;;;9.10;99.90;;;;;;5056133;28;20029;-74
2022/12/31 08:11:52;;;;;;;1999.90;999.90;;;9.10;99.90;;;;;;5054585;28;20024;-75
2022/12/31 08:14:18;;;;;;;1999.90;999.90;;;9.20;99.90;;;;;;5056252;28;20035;-75
2022/12/31 08:16:44;;;;;;;1999.90;999.90;;;9.10;99.90;;;;;;5054510;28;20060;-77
2022/12/31 08:19:31;;;;;;;1999.90;999.90;;;9.20;99.90;;;;;;5061295;28;20070;-76
2022/12/31 08:22:39;;;;;;;1999.90;999.90;;;9.20;99.90;;;;;;5062202;28;20025;-76
2022/12/31 08:25:28;;;;;;;1999.90;999.90;;;9.30;99.90;;;;;;5060449;28;20032;-77
2022/12/31 08:27:59;;;;;;;1999.90;999.90;;;9.30;99.90;;;;;;5064333;28;20032;-76
2022/12/31 08:30:52;;;;;;;1999.90;999.90;;;9.40;99.90;;;;;;5065246;28;20795;-76
2022/12/31 08:33:23;;;;;;;1999.90;999.90;;;9.30;99.90;;;;;;5057945;28;20044;-76
2022/12/31 08:36:28;;;;;;;1999.90;999.90;;;9.20;99.90;;;;;;5067167;28;20440;-77
2022/12/31 08:39:00;;;;;;;1999.90;999.90;;;9.20;99.90;;;;;;5057398;28;20025;-77
2022/12/31 08:41:35;;;;;;;1999.90;999.90;;;9.40;99.90;;;;;;5061486;28;20426;-76
2022/12/31 08:44:19;;;;;;;1999.90;999.90;;;9.40;99.90;;;;;;5060135;28;20020;-67
2022/12/31 08:47:02;;;;;;;1999.90;999.90;;;9.40;99.90;;;;;;5055955;28;20020;-65
2022/12/31 08:49:33;;;;;;;1999.90;999.90;;;9.50;99.90;;;;;;5060498;28;20051;-65
2022/12/31 08:52:00;;;;;;;1999.90;999.90;;;9.70;99.90;;;;;;5062248;28;20039;-80
2022/12/31 08:54:27;;;;;;;1999.90;999.90;;;9.90;99.90;;;;;;5061695;28;20155;-81
2022/12/31 08:57:23;;;;;;;1134.68;571.75;;;9.90;99.90;;;;;;5039807;28;20116;-79
2022/12/31 09:00:05;;;;;;;1999.90;999.90;;;10.00;99.90;;;;;;5055442;28;20021;-78
2022/12/31 09:03:08;;;;;;;1999.90;999.90;;;10.10;99.90;;;;;;5058212;28;20085;-78
2022/12/31 09:05:57;;;;;;;1999.90;999.90;;;10.20;99.90;;;;;;5058801;28;20071;-79
2022/12/31 09:08:47;;;;;;;1999.90;999.90;;;10.40;99.90;;;;;;5054657;28;20082;-69
2022/12/31 09:11:29;;;;;;;1342.32;704.05;;;10.50;99.90;;;;;;5062862;28;20506;-69
2022/12/31 09:14:36;;;;;;;1999.90;999.90;;;10.40;99.90;;;;;;5063715;28;20098;-69
2022/12/31 09:17:23;;;;;;;1999.90;999.90;;;10.60;99.90;;;;;;5062099;28;20072;-69
2022/12/31 09:19:50;;;;;;;1999.90;999.90;;;10.80;99.90;;;;;;5057061;28;20070;-68
2022/12/31 09:22:16;;;;;;;1101.55;554.58;;;10.90;99.90;;;;;;5052856;28;20518;-69
2022/12/31 09:24:42;;;;;;;1615.22;801.03;;;11.10;99.90;;;;;;5060928;28;20036;-68
2022/12/31 09:27:24;;;;;;;1999.90;999.90;;;11.20;99.90;;;;;;5054225;28;20035;-68
2022/12/31 09:30:02;;;;;;;1999.90;999.90;;;11.40;99.90;;;;;;5059777;28;20048;-69
2022/12/31 09:32:58;;;;;;;1999.90;999.90;;;11.50;99.90;;;;;;5060018;28;20033;-69
2022/12/31 09:35:45;;;;;;;1999.90;999.90;;;11.60;99.90;;;;;;5053180;28;20511;-69
2022/12/31 09:38:34;;;;;;;1999.90;999.90;;;11.70;99.90;;;;;;5057924;28;20039;-70
2022/12/31 09:41:16;;;;;;;1999.90;999.90;;;11.80;99.90;;;;;;5057985;28;20024;-69
2022/12/31 09:44:15;;;;;;;1999.90;999.90;;;12.00;99.90;;;;;;5058561;28;20025;-69
2022/12/31 09:46:43;;;;;;;1360.60;758.03;;;12.10;99.90;;;;;;5057328;28;20039;-75
2022/12/31 09:49:40;;;;;;;1999.90;999.90;;;12.40;99.90;;;;;;5063330;28;20478;-78
2022/12/31 09:52:28;;;;;;;1999.90;999.90;;;12.50;99.30;;;;;;5056334;28;20025;-79
2022/12/31 09:55:21;;;;;;;688.25;502.15;;;12.80;99.00;;;;;;5066619;28;20517;-78
2022/12/31 09:58:12;;;;;;;1156.07;999.90;;;12.90;98.60;;;;;;5061216;28;20028;-77
2022/12/31 10:00:52;;;;;;;1600.13;999.90;;;12.90;98.40;;;;;;5057126;28;20025;-78
2022/12/31 10:03:23;;;;;;;1354.75;999.90;;;12.90;98.30;;;;;;5052001;28;20090;-77
2022/12/31 10:06:07;;;;;;;1999.90;999.90;;;13.00;98.00;;;;;;5060080;28;20524;-78
2022/12/31 10:08:42;;;;;;;1454.05;999.90;;;13.10;97.50;;;;;;5063076;28;20024;-77
2022/12/31 10:11:26;;;;;;;1447.05;999.90;;;13.30;97.00;;;;;;5058685;28;20033;-77
2022/12/31 10:14:02;;;;;;;1999.90;999.90;;;13.40;96.10;;;;;;5057477;28;20103;-77
2022/12/31 10:16:31;;;;;;;1484.63;999.90;;;13.60;96.40;;;;;;5063221;28;20379;-77
2022/12/31 10:19:11;;;;;;;1050.03;890.88;;;13.50;96.30;;;;;;5052397;28;20025;-77
2022/12/31 10:21:47;;;;;;;1371.63;999.90;;;13.40;95.70;;;;;;5062147;28;20035;-78
2022/12/31 10:24:57;;;;;;;1499.00;999.90;;;13.30;96.10;;;;;;5065918;28;20448;-77
2022/12/31 10:27:43;;;;;;;1113.00;967.33;;;13.30;96.30;;;;;;5056076;28;20450;-77
2022/12/31 10:30:19;;;;;;;1267.93;999.90;;;13.20;96.30;;;;;;5052104;28;20049;-75
2022/12/31 10:33:09;;;;;;;1306.72;999.90;;;13.40;96.10;;;;;;5057484;28;20073;-75
2022/12/31 10:35:48;;;;;;;1547.83;999.90;;;13.20;95.80;;;;;;5066398;28;20053;-72
2022/12/31 10:38:44;;;;;;;1306.30;995.30;;;13.40;96.40;;;;;;5057520;28;20032;-77
2022/12/31 10:41:34;;;;;;;1486.88;999.90;;;13.50;95.50;;;;;;5058233;28;20040;-76
2022/12/31 10:44:29;;;;;;;1254.78;992.53;;;13.60;95.00;;;;;;5056642;28;20029;-76
2022/12/31 10:47:29;;;;;;;1594.22;999.90;;;13.70;95.10;;;;;;5056952;28;20116;-74
2022/12/31 10:50:34;;;;;;;1242.00;999.90;;;13.80;95.00;;;;;;5049938;28;20047;-75
2022/12/31 10:53:22;;;;;;;1283.28;997.88;;;14.00;94.80;;;;;;5053104;28;20103;-74
2022/12/31 10:56:20;;;;;;;1261.43;999.90;;;14.00;94.50;;;;;;5061966;28;20059;-75
2022/12/31 10:59:24;;;;;;;1008.63;721.03;;;14.00;94.40;;;;;;5020659;28;20037;-75
2022/12/31 11:02:20;;;;;;;1241.65;999.90;;;14.10;94.50;;;;;;5056521;28;20032;-75
2022/12/31 11:05:07;;;;;;;1252.25;999.90;;;14.30;94.00;;;;;;5064724;28;20127;-75
2022/12/31 11:07:49;;;;;;;1149.82;999.90;;;14.30;93.70;;;;;;5057071;28;20037;-76
2022/12/31 11:10:29;;;;;;;1217.20;999.90;;;14.50;92.90;;;;;;5054845;28;20045;-74
2022/12/31 11:13:13;;;;;;;;;;;14.50;93.30;;;;;;5060338;28;20704;-73
2022/12/31 11:16:06;;;;;;;918.58;853.00;;;14.60;92.30;;;;;;5052889;28;19912;-77
2022/12/31 11:19:19;;;;;;;1064.82;969.53;;;14.60;92.10;;;;;;5056023;28;20029;-76
2022/12/31 11:22:18;;;;;;;1022.78;925.03;;;14.70;91.90;;;;;;5014066;28;20071;-77
2022/12/31 11:25:15;;;;;;;1100.60;996.10;;;14.80;90.50;;;;;;5058240;28;20062;-76
2022/12/31 11:27:41;;;;;;;961.55;882.38;;;14.90;90.80;;;;;;5054514;28;20029;-78
2022/12/31 11:30:32;;;;;;;1088.80;986.53;;;15.00;90.10;;;;;;5060534;28;20040;-77
2022/12/31 11:33:23;;;;;;;975.55;822.75;;;15.00;90.30;;;;;;5057315;28;20041;-77
2022/12/31 11:36:09;;;;;;;966.80;891.60;;;15.10;90.30;;;;;;5057743;28;20074;-77
2022/12/31 11:38:51;;;;;;;963.78;875.65;;;15.00;89.70;;;;;;5060694;28;20029;-78
2022/12/31 11:41:47;;;;;;;1094.50;992.40;;;15.00;90.10;;;;;;5053402;28;20103;-78
2022/12/31 11:44:19;;;;;;;1043.32;954.75;;;15.10;90.30;;;;;;5055372;28;20562;-78
2022/12/31 11:47:30;;;;;;;1115.32;999.90;;;15.20;88.90;;;;;;5062148;28;20124;-77
2022/12/31 11:50:33;;;;;;;1082.35;989.75;;;15.20;89.30;;;;;;5052395;28;20037;-78
2022/12/31 11:53:12;;;;;;;1031.70;947.15;;;15.40;88.70;;;;;;5061262;28;20025;-78
2022/12/31 11:56:16;;;;;;;1100.25;994.47;;;15.50;88.60;;;;;;5058440;28;20074;-78
2022/12/31 11:58:47;;;;;;;973.40;895.95;;;15.50;88.40;;;;;;5013260;28;20533;-78
2022/12/31 12:01:29;;;;;;;1016.67;936.17;;;15.60;88.30;;;;;;5051482;28;20044;-78
2022/12/31 12:03:55;;;;;;;836.33;783.45;;;15.50;87.50;;;;;;5061856;28;20036;-78
2022/12/31 12:06:28;;;;;;;974.58;899.10;;;15.60;85.80;;;;;;5055470;28;20029;-78
2022/12/31 12:08:58;;;;;;;741.67;692.45;;;15.70;85.30;;;;;;5055834;28;20025;-77
2022/12/31 12:11:29;;;;;;;996.28;917.15;;;15.80;83.60;;;;;;5057924;28;20027;-78
2022/12/31 12:13:55;;;;;;;;;;;15.80;82.60;;;;;;5057838;28;20517;-78
2022/12/31 12:16:22;;;;;;;755.78;710.22;;;15.80;82.00;;;;;;5055615;28;19913;-78
2022/12/31 12:19:03;;;;;;;758.97;707.78;;;15.80;83.50;;;;;;5059033;28;20082;-77
2022/12/31 12:21:28;;;;;;;;;;;15.60;82.70;;;;;;5059203;28;20029;-78
2022/12/31 12:24:03;;;;;;;713.40;665.60;;;15.60;83.10;;;;;;5053692;28;19917;-77
2022/12/31 12:26:43;;;;;;;789.92;740.50;;;15.50;83.70;;;;;;5059177;28;20024;-79
2022/12/31 12:29:26;;;;;;;903.10;840.00;;;15.50;84.60;;;;;;5054525;28;20052;-78
2022/12/31 12:32:04;;;;;;;852.70;794.47;;;15.50;85.00;;;;;;5056194;28;20033;-78
2022/12/31 12:34:33;;;;;;;829.70;772.88;;;15.50;84.60;;;;;;5053744;28;20044;-79
2022/12/31 12:36:59;;;;;;;960.55;884.70;;;15.40;85.00;;;;;;5070593;28;20039;-79
2022/12/31 12:39:27;;;;;;;866.42;802.47;;;15.40;86.50;;;;;;5063948;28;20028;-78
2022/12/31 12:42:12;;;;;;;955.55;884.20;;;15.40;85.10;;;;;;5048549;28;20029;-79
2022/12/31 12:44:40;;;;;;;960.33;887.55;;;15.40;85.00;;;;;;5062616;28;20036;-79
2022/12/31 12:47:13;;;;;;;1029.25;944.50;;;15.30;85.30;;;;;;5064926;28;20029;-78
2022/12/31 12:49:46;;;;;;;1027.80;936.50;;;15.30;86.20;;;;;;5072599;28;20056;-78
2022/12/31 12:52:50;;;;;;;1020.80;938.35;;;15.40;87.40;;;;;;5066222;28;20051;-80
2022/12/31 12:55:46;;;;;;;1049.43;959.72;;;15.30;87.20;;;;;;5026024;28;20064;-79
2022/12/31 12:58:32;;;;;;;956.95;883.88;;;15.40;86.30;;;;;;5066972;28;20028;-79